Airfield :
LOGIN :

Register | Disclaimer

   EN    FR    IT 

 










Legend :    VFR   Marginal VFR   IFR   Intensive IFR   Very Intensive IFR
Visi :
Ceiling :
>= 8 km
>= 3000ft
5 to 8 km
1000 to 3000 ft
1500m to 5 km
500 to 1000 ft
800 to 1500m
200 to 500 ft
< 800m
< 200 ft
Symbols :   Thunderstorms  Fog  Heavy snow  Heavy precipitations  Wind > 20 kt
SIGMETs :     Misc.  Thunderstorms  Icing  Turbulence  Mountain Waves  Volcanic Ashes






- Airport Elevation : 157 ft
- IATA code : SXF


EDDB - Berlin Schönefeld

CURRENT METAR :
  • 190350Z 21012KT CAVOK 05/01 Q1012 NOSIG

EXPIRED METARs :
  • 190320Z 21015KT CAVOK 05/01 Q1013 NOSIG
  • 190250Z 21012KT CAVOK 05/01 Q1013 NOSIG
  • 190220Z 21015KT CAVOK 05/01 Q1014 NOSIG
  • 190150Z 22015KT CAVOK 05/01 Q1014 NOSIG
  • 190120Z 21014KT CAVOK 05/01 Q1014 NOSIG

TAF TAF EDDB
Valid from the 19 at 00:00 until the 20 at 00:00 UTC


182300Z 1900/1924 20012KT 9999 SCT045
TEMPO 1908/1911 22015G25KT RA BKN012
BECMG 1911/1912 27015G25KT
TEMPO 1912/1920 29020G35KT SHRA SCT020CB
BECMG 1920/1922 27010KT



MET'MAP, your aeronautical weather chart ! - Copyright ORBIFLY December 2007 - Disclaimer

ORBIFLY MET'MAP TEAM :

Programming & Development : Alexandra Zaïnal
Concept & original design : Baudouin d'Aumeries
Assistance for programming : Marc-Olivier Méhu
Technical & hardware support : Manuel Goepfert

Contact : metmap@orbifly.com




SOURCES & CREDITS :

   NOAA